Time;durP1;ratioP1;P1;durP2;ratioP2;P2;SDS_P1;SDS_P2;PMS_P1;PMS_P2;Temp;Humidity;BMP_temperature;BMP_pressure;BME280_temperature;BME280_humidity;BME280_pressure;Samples;Min_cycle;Max_cycle;Signal;HPM_P1;HPM_P2
2022/08/04 00:01:44;;;;;;;;;;;21.90;99.90;;;;;;5060850;28;20003;-79
2022/08/04 00:04:13;;;;;;;;;;;21.90;99.90;;;;;;5057384;28;20439;-80
2022/08/04 00:06:45;;;;;;;;;;;21.80;99.90;;;;;;5061879;28;19925;-79
2022/08/04 00:09:17;;;;;;;;;;;21.80;99.90;;;;;;5060025;28;20019;-79
2022/08/04 00:11:45;;;;;;;;;;;21.80;99.90;;;;;;5065131;28;19939;-79
2022/08/04 00:14:13;;;;;;;;;;;21.80;99.90;;;;;;5062726;28;19932;-79
2022/08/04 00:16:41;;;;;;;;;;;21.80;99.90;;;;;;5066661;28;19960;-79
2022/08/04 00:19:10;;;;;;;;;;;21.80;99.90;;;;;;5059157;28;20063;-79
2022/08/04 00:21:38;;;;;;;;;;;21.80;99.90;;;;;;5059110;28;20575;-80
2022/08/04 00:24:06;;;;;;;;;;;21.80;99.90;;;;;;5064013;28;20023;-79
2022/08/04 00:26:34;;;;;;;;;;;21.70;99.90;;;;;;5064272;28;20362;-79
2022/08/04 00:29:02;;;;;;;;;;;21.70;99.90;;;;;;5060033;28;20020;-79
2022/08/04 00:31:28;;;;;;;;;;;21.70;99.90;;;;;;5057798;28;20388;-79
2022/08/04 00:33:55;;;;;;;;;;;21.60;99.90;;;;;;5059644;28;20062;-78
2022/08/04 00:36:22;;;;;;;;;;;21.60;99.90;;;;;;5064503;28;19929;-79
2022/08/04 00:38:49;;;;;;;;;;;21.60;99.90;;;;;;5051818;28;20423;-78
2022/08/04 00:41:21;;;;;;;;;;;21.50;99.90;;;;;;5059296;28;20052;-78
2022/08/04 00:43:58;;;;;;;;;;;21.50;99.90;;;;;;5072040;28;20031;-78
2022/08/04 00:46:35;;;;;;;;;;;21.50;99.90;;;;;;5063881;28;20138;-78
2022/08/04 00:49:06;;;;;;;;;;;21.40;99.90;;;;;;5065057;28;19925;-77
2022/08/04 00:51:38;;;;;;;;;;;21.40;99.90;;;;;;5065036;28;19935;-79
2022/08/04 00:54:10;;;;;;;;;;;21.40;99.90;;;;;;5063847;28;19932;-79
2022/08/04 00:56:51;;;;;;;;;;;21.30;99.90;;;;;;5065867;28;19971;-79
2022/08/04 00:59:26;;;;;;;;;;;21.30;99.90;;;;;;5056556;28;19924;-79
2022/08/04 01:01:58;;;;;;;;;;;21.30;99.90;;;;;;5063729;28;19933;-79
2022/08/04 01:04:29;;;;;;;;;;;21.20;99.90;;;;;;5054883;28;19931;-79
2022/08/04 01:07:06;;;;;;;;;;;21.20;99.90;;;;;;5054424;28;20051;-79
2022/08/04 01:09:38;;;;;;;;;;;21.20;99.90;;;;;;5060511;28;20019;-79
2022/08/04 01:12:16;;;;;;;;;;;21.10;99.90;;;;;;5056275;28;20011;-79
2022/08/04 01:14:52;;;;;;;;;;;21.10;99.90;;;;;;5061482;28;19924;-79
2022/08/04 01:17:20;;;;;;;;;;;21.10;99.90;;;;;;5056870;28;19929;-79
2022/08/04 01:19:54;;;;;;;;;;;21.10;99.90;;;;;;5059732;28;19932;-79
2022/08/04 01:22:29;;;;;;;;;;;21.10;99.90;;;;;;5057513;28;19924;-79
2022/08/04 01:25:02;;;;;;;;;;;21.00;99.90;;;;;;5063930;28;20027;-80
2022/08/04 01:27:37;;;;;;;;;;;21.00;99.90;;;;;;5061066;28;19935;-80
2022/08/04 01:30:06;;;;;;;;;;;21.00;99.90;;;;;;5060347;28;19931;-79
2022/08/04 01:32:36;;;;;;;;;;;20.90;99.90;;;;;;5061896;28;19925;-79
2022/08/04 01:35:04;;;;;;;;;;;20.90;99.90;;;;;;5064397;28;20015;-79
2022/08/04 01:37:39;;;;;;;;;;;20.90;99.90;;;;;;5060080;28;19967;-80
2022/08/04 01:40:07;;;;;;;;;;;20.90;99.90;;;;;;5060863;28;20468;-79
2022/08/04 01:42:35;;;;;;;;;;;21.00;99.90;;;;;;5055925;28;19968;-79
2022/08/04 01:45:03;;;;;;;;;;;21.00;99.90;;;;;;5057275;28;20475;-79
2022/08/04 01:47:33;;;;;;;;;;;21.00;99.90;;;;;;5068780;28;19925;-78
2022/08/04 01:50:04;;;;;;;;;;;21.00;99.90;;;;;;5063340;28;20339;-78
2022/08/04 01:52:31;;;;;;;;;;;21.10;99.90;;;;;;5061370;28;19924;-78
2022/08/04 01:54:58;;;;;;;;;;;21.10;99.90;;;;;;5062509;28;19925;-77
2022/08/04 01:57:27;;;;;;;;;;;21.10;99.90;;;;;;5055822;28;20020;-78
2022/08/04 01:59:53;;;;;;;;;;;21.00;99.90;;;;;;5061896;28;20383;-79
2022/08/04 02:02:22;;;;;;;;;;;20.90;99.90;;;;;;5058321;28;19995;-77
2022/08/04 02:04:50;;;;;;;;;;;20.80;99.90;;;;;;5065820;28;19928;-76
2022/08/04 02:07:23;;;;;;;;;;;20.80;99.90;;;;;;5061288;28;19956;-76
2022/08/04 02:09:55;;;;;;;;;;;20.80;99.90;;;;;;5052428;28;19932;-75
2022/08/04 02:12:25;;;;;;;;;;;20.80;99.90;;;;;;5055986;28;20388;-76
2022/08/04 02:14:56;;;;;;;;;;;20.80;99.90;;;;;;5064301;28;19928;-77
2022/08/04 02:17:26;;;;;;;;;;;20.80;99.90;;;;;;5063217;28;19925;-77
2022/08/04 02:20:00;;;;;;;;;;;20.80;99.90;;;;;;5057255;28;19958;-78
2022/08/04 02:22:28;;;;;;;;;;;20.80;99.90;;;;;;5054032;28;20011;-79
2022/08/04 02:24:58;;;;;;;;;;;20.80;99.90;;;;;;5053488;28;20698;-78
2022/08/04 02:27:28;;;;;;;;;;;20.80;99.90;;;;;;5060792;28;19929;-78
2022/08/04 02:29:58;;;;;;;;;;;20.80;99.90;;;;;;5059587;28;19931;-79
2022/08/04 02:32:26;;;;;;;;;;;20.70;99.90;;;;;;5048502;28;20019;-79
2022/08/04 02:34:54;;;;;;;;;;;20.70;99.90;;;;;;5060991;28;19967;-79
2022/08/04 02:37:23;;;;;;;;;;;20.70;99.90;;;;;;5060321;28;19932;-80
2022/08/04 02:39:52;;;;;;;;;;;20.70;99.90;;;;;;5061016;28;20018;-80
2022/08/04 02:42:19;;;;;;;;;;;20.70;99.90;;;;;;5053722;28;20299;-79
2022/08/04 02:44:48;;;;;;;;;;;20.70;99.90;;;;;;5057066;28;19975;-79
2022/08/04 02:47:17;;;;;;;;;;;20.60;99.90;;;;;;5055183;28;20015;-77
2022/08/04 02:49:45;;;;;;;;;;;20.60;99.90;;;;;;5054366;28;19978;-78
2022/08/04 02:52:12;;;;;;;;;;;20.60;99.90;;;;;;5055675;28;19931;-77
2022/08/04 02:54:41;;;;;;;;;;;20.60;99.90;;;;;;5054711;28;20287;-77
2022/08/04 02:57:09;;;;;;;;;;;20.50;99.90;;;;;;5057267;28;19931;-77
2022/08/04 02:59:43;;;;;;;;;;;20.60;99.90;;;;;;5063014;28;19925;-78
2022/08/04 03:02:10;;;;;;;;;;;20.50;99.90;;;;;;5055414;28;20139;-77
2022/08/04 03:04:50;;;;;;;;;;;20.50;99.90;;;;;;5063064;28;20015;-77
2022/08/04 03:07:29;;;;;;;;;;;20.40;99.90;;;;;;5052766;28;19925;-77
2022/08/04 03:10:08;;;;;;;;;;;20.40;99.90;;;;;;5056236;28;19925;-79
2022/08/04 03:12:57;;;;;;;;;;;20.40;99.90;;;;;;5065081;28;20401;-79
2022/08/04 03:15:44;;;;;;;;;;;20.40;99.90;;;;;;5061273;28;20020;-78
2022/08/04 03:18:35;;;;;;;;;;;20.40;99.90;;;;;;5056132;28;19938;-78
2022/08/04 03:21:09;;;;;;;;;;;20.40;99.90;;;;;;5057948;28;19939;-79
2022/08/04 03:23:50;;;;;;;;;;;20.30;99.90;;;;;;5061852;28;20023;-79
2022/08/04 03:26:31;;;;;;;;;;;20.30;99.90;;;;;;5059967;28;20023;-79
2022/08/04 03:29:10;;;;;;;;;;;20.30;99.90;;;;;;5050664;28;19974;-78
2022/08/04 03:31:55;;;;;;;;;;;20.30;99.90;;;;;;5061609;28;20028;-79
2022/08/04 03:34:39;;;;;;;;;;;20.30;99.90;;;;;;5065348;28;20031;-78
2022/08/04 03:37:19;;;;;;;;;;;20.20;99.90;;;;;;5065891;28;19924;-78
2022/08/04 03:40:03;;;;;;;;;;;20.20;99.90;;;;;;5057016;28;19924;-78
2022/08/04 03:42:36;;;;;;;;;;;20.10;99.90;;;;;;5060811;28;19924;-79
2022/08/04 03:45:18;;;;;;;;;;;20.10;99.90;;;;;;5060290;28;19924;-79
2022/08/04 03:47:58;;;;;;;;;;;20.00;99.90;;;;;;5062796;28;20011;-79
2022/08/04 03:50:40;;;;;;;;;;;20.00;99.90;;;;;;5052303;28;20269;-80
2022/08/04 03:53:16;;;;;;;;;;;20.00;99.90;;;;;;5063649;28;20352;-80
2022/08/04 03:56:02;;;;;;;;;;;20.00;99.90;;;;;;5064415;28;20302;-79
2022/08/04 03:58:39;;;;;;;;;;;20.00;99.90;;;;;;5059933;28;19944;-79
2022/08/04 04:01:12;;;;;;;;;;;20.00;99.90;;;;;;5062641;28;19970;-79
2022/08/04 04:03:54;;;;;;;;;;;20.10;99.90;;;;;;5069191;28;19979;-80
2022/08/04 04:06:54;;;;;;;;;;;20.00;99.90;;;;;;5067006;28;20023;-78
2022/08/04 04:09:36;;;;;;;;;;;20.00;99.90;;;;;;4987189;28;20405;-79
2022/08/04 04:12:20;;;;;;;;;;;20.10;99.90;;;;;;4982074;28;20020;-79
2022/08/04 04:14:56;;;;;;;;;;;20.10;99.90;;;;;;5029495;28;20015;-79
2022/08/04 04:17:43;;;;;;;;;;;20.20;99.90;;;;;;5061145;28;19931;-80
2022/08/04 04:20:19;;;;;;;;;;;20.20;99.90;;;;;;5065804;28;20003;-79
2022/08/04 04:22:55;;;;;;;;;;;20.20;99.90;;;;;;5072784;28;19936;-80
2022/08/04 04:25:30;;;;;;;;;;;20.10;99.90;;;;;;5073334;28;19959;-78
2022/08/04 04:28:15;;;;;;;;;;;20.10;99.90;;;;;;5066028;28;20272;-77
2022/08/04 04:30:47;;;;;;;;;;;20.10;99.90;;;;;;5067852;28;20053;-79
2022/08/04 04:33:24;;;;;;;;;;;20.00;99.90;;;;;;5073582;28;19975;-79
2022/08/04 04:35:59;;;;;;;;;;;20.00;99.90;;;;;;5069745;28;20063;-78
2022/08/04 04:38:30;;;;;;;;;;;20.10;99.90;;;;;;5069712;28;19924;-77
2022/08/04 04:41:04;;;;;;;;;;;20.10;99.90;;;;;;5068435;28;20015;-79
2022/08/04 04:43:44;;;;;;;;;;;20.10;99.90;;;;;;5071601;28;19924;-79
2022/08/04 04:46:13;;;;;;;;;;;20.10;99.90;;;;;;5068951;28;20383;-79
2022/08/04 04:48:44;;;;;;;;;;;20.10;99.90;;;;;;5071527;28;20344;-78
2022/08/04 04:51:18;;;;;;;;;;;20.20;99.90;;;;;;5066616;28;19930;-78
2022/08/04 04:53:50;;;;;;;;;;;20.10;99.90;;;;;;5072583;28;20646;-78
2022/08/04 04:56:19;;;;;;;;;;;20.20;99.90;;;;;;5067957;28;20031;-78
2022/08/04 04:58:46;;;;;;;;;;;20.20;99.90;;;;;;5061239;28;19925;-77
2022/08/04 05:01:28;;;;;;;;;;;20.20;99.90;;;;;;5065552;28;19932;-80
2022/08/04 05:04:03;;;;;;;;;;;20.20;99.90;;;;;;5068223;28;20395;-78
2022/08/04 05:06:40;;;;;;;;;;;20.30;99.90;;;;;;5064827;28;20023;-76
2022/08/04 05:09:11;;;;;;;;;;;20.30;99.90;;;;;;5073299;28;19925;-78
2022/08/04 05:11:55;;;;;;;;;;;20.30;99.90;;;;;;5068470;28;20031;-79
2022/08/04 05:14:25;;;;;;;;;;;20.40;99.90;;;;;;5071881;28;20021;-76
2022/08/04 05:16:58;;;;;;;;;;;20.40;99.90;;;;;;5061795;28;20020;-77
2022/08/04 05:19:28;;;;;;;;;;;20.50;99.90;;;;;;5062261;28;20451;-78
2022/08/04 05:22:01;;;;;;;;;;;20.60;99.90;;;;;;5065400;28;19971;-78
2022/08/04 05:24:28;;;;;;;;;;;20.60;99.90;;;;;;5070602;28;20028;-78
2022/08/04 05:26:56;;;;;;;;;;;20.60;99.90;;;;;;5062501;28;20015;-77
2022/08/04 05:29:27;;;;;;;;;;;20.70;99.90;;;;;;5066883;28;20011;-78
2022/08/04 05:31:55;;;;;;;;;;;20.70;99.90;;;;;;5066685;28;20027;-78
2022/08/04 05:34:23;;;;;;;;;;;20.70;99.90;;;;;;5060933;28;19925;-79
2022/08/04 05:36:53;;;;;;;;;;;20.70;99.90;;;;;;5061234;28;19931;-78
2022/08/04 05:39:22;;;;;;;;;;;20.70;99.90;;;;;;5068607;28;19932;-79
2022/08/04 05:41:49;;;;;;;;;;;20.80;99.90;;;;;;5056279;28;19956;-78
2022/08/04 05:44:16;;;;;;;;;;;20.90;99.90;;;;;;5071753;28;19970;-80
2022/08/04 05:46:44;;;;;;;;;;;21.00;99.90;;;;;;5065241;28;19942;-77
2022/08/04 05:49:11;;;;;;;;;;;21.00;99.90;;;;;;5066329;28;20011;-76
2022/08/04 05:51:38;;;;;;;;;;;21.00;99.90;;;;;;5064857;28;19979;-76
2022/08/04 05:54:05;;;;;;;;;;;21.10;99.90;;;;;;5067822;28;20387;-75
2022/08/04 05:56:34;;;;;;;;;;;21.20;99.90;;;;;;5070379;28;19925;-76
2022/08/04 05:59:02;;;;;;;;;;;21.30;99.90;;;;;;5064814;28;20350;-76
2022/08/04 06:01:29;;;;;;;;;;;21.60;99.90;;;;;;5063924;28;20001;-75
2022/08/04 06:03:56;;;;;;;;;;;21.90;99.90;;;;;;5064007;28;19932;-76
2022/08/04 06:06:23;;;;;;;;;;;22.20;99.90;;;;;;5069399;28;20306;-74
2022/08/04 06:08:50;;;;;;;;;;;22.70;99.90;;;;;;5064176;28;19968;-74
2022/08/04 06:11:19;;;;;;;;;;;23.40;99.90;;;;;;5063027;28;19932;-74
2022/08/04 06:13:50;;;;;;;;;;;23.70;99.90;;;;;;5070627;28;19960;-74
2022/08/04 06:16:18;;;;;;;;;;;23.80;99.90;;;;;;5065451;28;19943;-74
2022/08/04 06:18:45;;;;;;;;;;;23.60;99.90;;;;;;5066912;28;19975;-73
2022/08/04 06:21:13;;;;;;;;;;;23.40;99.90;;;;;;5061736;28;19933;-69
2022/08/04 06:23:40;;;;;;;;;;;23.10;99.90;;;;;;5063325;28;19968;-75
2022/08/04 06:26:07;;;;;;;;;;;23.00;99.90;;;;;;5067564;28;20022;-74
2022/08/04 06:28:34;;;;;;;;;;;22.90;99.90;;;;;;5061276;28;19954;-74
2022/08/04 06:31:04;;;;;;;;;;;23.00;99.90;;;;;;5070145;28;19971;-75
2022/08/04 06:33:33;;;;;;;;;;;23.00;99.90;;;;;;5054774;28;20014;-75
2022/08/04 06:36:00;;;;;;;;;;;22.80;99.90;;;;;;5069814;28;19928;-75
2022/08/04 06:38:28;;;;;;;;;;;22.60;99.90;;;;;;5065221;28;19924;-75
2022/08/04 06:40:56;;;;;;;;;;;22.70;99.90;;;;;;5057992;28;19963;-75
2022/08/04 06:43:24;;;;;;;;;;;22.80;99.90;;;;;;5065876;28;19929;-75
2022/08/04 06:45:51;;;;;;;;;;;22.70;99.90;;;;;;5066857;28;19925;-74
2022/08/04 06:48:19;;;;;;;;;;;22.60;99.90;;;;;;5061273;28;19924;-75
2022/08/04 06:50:47;;;;;;;;;;;22.70;99.90;;;;;;5061910;28;20028;-74
2022/08/04 06:53:14;;;;;;;;;;;22.80;99.90;;;;;;5066508;28;19979;-72
2022/08/04 06:55:42;;;;;;;;;;;22.80;99.90;;;;;;5053469;28;19998;-71
2022/08/04 06:58:09;;;;;;;;;;;23.00;99.90;;;;;;5055362;28;20056;-71
2022/08/04 07:00:36;;;;;;;;;;;23.20;99.90;;;;;;5057213;28;20015;-74
2022/08/04 07:03:03;;;;;;;;;;;23.90;99.90;;;;;;5055204;28;19928;-75
2022/08/04 07:05:32;;;;;;;;;;;25.20;99.90;;;;;;5056751;28;19973;-74
2022/08/04 07:07:58;;;;;;;;;;;26.50;99.90;;;;;;5052214;28;20487;-74
2022/08/04 07:10:26;;;;;;;;;;;27.60;98.90;;;;;;5052775;28;19940;-74
2022/08/04 07:12:53;;;;;;;;;;;27.90;96.60;;;;;;5054532;28;19982;-74
2022/08/04 07:15:20;;;;;;;;;;;28.40;96.30;;;;;;5056934;28;20012;-76
2022/08/04 07:17:47;;;;;;;;;;;28.80;93.90;;;;;;5052962;28;19956;-75
2022/08/04 07:20:14;;;;;;;;;;;28.20;93.90;;;;;;5053758;28;19994;-75
2022/08/04 07:22:42;;;;;;;;;;;27.40;95.60;;;;;;5055429;28;20031;-74
2022/08/04 07:25:11;;;;;;;;;;;27.10;96.80;;;;;;5051463;28;19925;-74
2022/08/04 07:27:38;;;;;;;;;;;26.60;97.70;;;;;;5055270;28;20019;-75
2022/08/04 07:30:05;;;;;;;;;;;26.30;98.80;;;;;;5050716;28;19933;-74
2022/08/04 07:32:32;;;;;;;;;;;26.00;99.90;;;;;;5054943;28;20006;-75
2022/08/04 07:34:59;;;;;;;;;;;26.00;99.90;;;;;;5058975;28;20423;-73
2022/08/04 07:37:26;;;;;;;;;;;25.50;99.90;;;;;;5057802;28;19964;-73
2022/08/04 07:39:54;;;;;;;;;;;25.00;99.90;;;;;;5057391;28;19924;-73
2022/08/04 07:42:21;;;;;;;;;;;24.80;99.90;;;;;;5057193;28;19948;-78
2022/08/04 07:44:47;;;;;;;;;;;24.80;99.90;;;;;;5051494;28;19970;-78
2022/08/04 07:47:14;;;;;;;;;;;24.50;99.90;;;;;;5057533;28;19937;-78
2022/08/04 07:49:41;;;;;;;;;;;24.30;99.90;;;;;;5063132;28;20007;-75
2022/08/04 07:52:09;;;;;;;;;;;24.00;99.90;;;;;;5058439;28;20023;-74
2022/08/04 07:54:35;;;;;;;;;;;23.90;99.90;;;;;;5060407;28;20531;-74
2022/08/04 07:57:04;;;;;;;;;;;23.90;99.90;;;;;;5054140;28;20020;-75
2022/08/04 07:59:31;;;;;;;;;;;23.80;99.90;;;;;;5061847;28;20050;-75
2022/08/04 08:01:59;;;;;;;;;;;23.70;99.90;;;;;;5063105;28;20079;-69
2022/08/04 08:04:25;;;;;;;;;;;23.60;99.90;;;;;;5060689;28;19959;-75
2022/08/04 08:06:52;;;;;;;;;;;23.60;99.90;;;;;;5062957;28;19940;-74
2022/08/04 08:09:20;;;;;;;;;;;23.40;99.90;;;;;;5062177;28;19956;-74
2022/08/04 08:11:48;;;;;;;;;;;23.30;99.90;;;;;;5061658;28;19924;-72
2022/08/04 08:14:16;;;;;;;;;;;23.40;99.90;;;;;;5062383;28;19931;-75
2022/08/04 08:16:43;;;;;;;;;;;23.70;99.90;;;;;;5054573;28;20027;-75
2022/08/04 08:19:10;;;;;;;;;;;23.80;99.90;;;;;;5057279;28;19933;-75
2022/08/04 08:21:37;;;;;;;;;;;23.70;99.90;;;;;;5061327;28;19982;-76
2022/08/04 08:24:06;;;;;;;;;;;23.70;99.90;;;;;;5052880;28;19972;-77
2022/08/04 08:26:34;;;;;;;;;;;23.60;99.90;;;;;;5051684;28;19924;-77
2022/08/04 08:29:02;;;;;;;;;;;23.50;99.90;;;;;;5059360;28;19960;-77
2022/08/04 08:31:31;;;;;;;;;;;23.40;99.90;;;;;;5057601;28;20302;-77
2022/08/04 08:33:59;;;;;;;;;;;23.20;99.90;;;;;;5059172;28;19960;-78
2022/08/04 08:36:28;;;;;;;;;;;23.10;99.90;;;;;;5054199;28;19925;-74
2022/08/04 08:38:59;;;;;;;;;;;23.00;99.90;;;;;;5053656;28;19933;-74
2022/08/04 08:41:50;;;;;;;;;;;23.00;99.90;;;;;;5061510;28;19952;-75
2022/08/04 08:44:29;;;;;;;;;;;22.80;99.90;;;;;;5057589;28;20031;-76
2022/08/04 08:47:06;;;;;;;;;;;22.80;99.90;;;;;;5059697;28;20007;-75
2022/08/04 08:49:45;;;;;;;;;;;22.70;99.90;;;;;;5057705;28;20399;-75
2022/08/04 08:52:24;;;;;;;;;;;22.70;99.90;;;;;;5057341;28;20002;-74
2022/08/04 08:54:56;;;;;;;;;;;22.50;99.90;;;;;;5060892;28;20023;-73
2022/08/04 08:57:32;;;;;;;;;;;22.60;99.90;;;;;;5060933;28;20711;-75
2022/08/04 09:00:04;;;;;;;;;;;22.60;99.90;;;;;;5059579;28;19928;-74
2022/08/04 09:02:44;;;;;;;;;;;22.70;99.90;;;;;;5052387;28;19925;-73
2022/08/04 09:05:19;;;;;;;;;;;22.70;99.90;;;;;;5057426;28;19931;-75
2022/08/04 09:07:57;;;;;;;;;;;22.60;99.90;;;;;;5061947;28;19925;-74
2022/08/04 09:10:26;;;;;;;;;;;22.40;99.90;;;;;;5065709;28;19931;-74
2022/08/04 09:12:56;;;;;;;;;;;22.30;99.90;;;;;;5062701;28;19924;-75
2022/08/04 09:15:28;;;;;;;;;;;22.20;99.90;;;;;;5059172;28;19974;-75
2022/08/04 09:17:59;;;;;;;;;;;22.20;99.90;;;;;;5060130;28;19964;-76
2022/08/04 09:20:29;;;;;;;;;;;22.10;99.90;;;;;;5057371;28;19928;-75
2022/08/04 09:23:00;;;;;;;;;;;22.10;99.90;;;;;;5055439;28;19932;-74
2022/08/04 09:25:30;;;;;;;;;;;22.00;99.90;;;;;;5056531;28;19933;-76
2022/08/04 09:28:00;;;;;;;;;;;21.70;99.90;;;;;;5062386;28;19925;-72
2022/08/04 09:30:31;;;;;;;;;;;21.80;99.90;;;;;;5060669;28;19924;-75
2022/08/04 09:33:07;;;;;;;;;;;21.90;99.90;;;;;;5059030;28;19928;-75
2022/08/04 09:35:40;;;;;;;;;;;21.90;99.90;;;;;;5061723;28;19928;-74
2022/08/04 09:38:11;;;;;;;;;;;21.90;99.90;;;;;;5066210;28;20019;-74
2022/08/04 09:40:40;;;;;;;;;;;22.00;99.90;;;;;;5068998;28;19925;-75
2022/08/04 09:43:11;;;;;;;;;;;22.00;99.90;;;;;;5064635;28;20013;-75
2022/08/04 09:45:40;;;;;;;;;;;22.00;99.90;;;;;;5058455;28;19929;-74
2022/08/04 09:48:11;;;;;;;;;;;22.00;99.90;;;;;;5056617;28;19925;-76
2022/08/04 09:50:39;;;;;;;;;;;22.20;99.90;;;;;;5060935;28;19978;-74
2022/08/04 09:53:10;;;;;;;;;;;22.30;99.90;;;;;;5065507;28;20040;-74
2022/08/04 09:55:43;;;;;;;;;;;22.40;99.90;;;;;;5069050;28;19964;-74
2022/08/04 09:58:14;;;;;;;;;;;22.40;99.90;;;;;;5067147;28;19931;-76
2022/08/04 10:00:45;;;;;;;;;;;22.40;99.90;;;;;;5062492;28;19924;-75
2022/08/04 10:03:14;;;;;;;;;;;22.40;99.90;;;;;;5057337;28;20022;-77
2022/08/04 10:05:52;;;;;;;;;;;22.40;99.90;;;;;;5058470;28;19925;-76
2022/08/04 10:08:22;;;;;;;;;;;22.40;99.90;;;;;;5062755;28;19924;-79
2022/08/04 10:10:56;;;;;;;;;;;22.60;99.90;;;;;;5061461;28;20308;-78
2022/08/04 10:13:26;;;;;;;;;;;22.70;99.90;;;;;;5061484;28;20612;-78
2022/08/04 10:16:00;;;;;;;;;;;22.70;99.90;;;;;;5062230;28;19947;-77
2022/08/04 10:18:40;;;;;;;;;;;22.70;99.90;;;;;;5062353;28;19925;-76
2022/08/04 10:21:10;;;;;;;;;;;23.00;99.90;;;;;;5058182;28;19947;-76
2022/08/04 10:23:43;;;;;;;;;;;23.40;99.90;;;;;;5062399;28;20008;-77
2022/08/04 10:26:15;;;;;;;;;;;24.20;99.90;;;;;;5062121;28;19925;-77
2022/08/04 10:28:44;;;;;;;;;;;24.40;99.90;;;;;;5061872;28;19929;-78
2022/08/04 10:31:15;;;;;;;;;;;24.80;99.90;;;;;;5054825;28;19924;-78
2022/08/04 10:33:49;;;;;;;;;;;24.60;99.90;;;;;;5058157;28;19967;-77
2022/08/04 10:36:17;;;;;;;;;;;24.60;99.90;;;;;;5060018;28;19967;-77
2022/08/04 10:39:00;;;;;;;;;;;24.60;99.90;;;;;;5062220;28;19958;-78
2022/08/04 10:41:32;;;;;;;;;;;24.80;99.90;;;;;;5059777;28;19924;-76
2022/08/04 10:44:05;;;;;;;;;;;24.90;99.90;;;;;;5066188;28;20015;-75
2022/08/04 10:46:34;;;;;;;;;;;25.00;99.90;;;;;;5054478;28;19932;-77
2022/08/04 10:49:04;;;;;;;;;;;25.20;99.90;;;;;;5059126;28;19924;-77
2022/08/04 10:51:34;;;;;;;;;;;25.20;99.90;;;;;;5060034;28;20011;-78
2022/08/04 10:54:05;;;;;;;;;;;24.90;99.90;;;;;;5055684;28;20312;-77
2022/08/04 10:56:36;;;;;;;;;;;24.50;99.90;;;;;;5064951;28;19924;-77
2022/08/04 10:59:04;;;;;;;;;;;24.60;99.90;;;;;;5063018;28;19962;-77
2022/08/04 11:01:32;;;;;;;;;;;25.40;99.90;;;;;;5064053;28;19924;-77
2022/08/04 11:04:01;;;;;;;;;;;25.70;99.90;;;;;;5063820;28;19924;-77
2022/08/04 11:06:29;;;;;;;;;;;25.90;99.90;;;;;;5063801;28;20039;-77
2022/08/04 11:08:56;;;;;;;;;;;24.90;99.90;;;;;;5055518;28;20307;-76
2022/08/04 11:11:30;;;;;;;;;;;24.90;99.90;;;;;;5054185;28;20146;-78
2022/08/04 11:13:59;;;;;;;;;;;25.70;99.90;;;;;;5060476;28;19951;-76
2022/08/04 11:16:27;;;;;;;;;;;25.60;99.90;;;;;;5054725;28;20016;-75
2022/08/04 11:19:03;;;;;;;;;;;26.00;99.90;;;;;;5056839;28;19924;-76
2022/08/04 11:21:33;;;;;;;;;;;26.00;99.90;;;;;;5056244;28;20008;-77
2022/08/04 11:24:01;;;;;;;;;;;26.00;99.90;;;;;;5053405;28;19932;-78
2022/08/04 11:26:32;;;;;;;;;;;25.90;99.90;;;;;;5051844;28;19970;-77
2022/08/04 11:29:05;;;;;;;;;;;25.70;99.90;;;;;;5059120;28;19967;-78
2022/08/04 11:31:33;;;;;;;;;;;25.10;99.90;;;;;;5062393;28;19928;-77
2022/08/04 11:34:03;;;;;;;;;;;25.40;99.90;;;;;;5061383;28;20015;-76
2022/08/04 11:36:34;;;;;;;;;;;25.70;99.90;;;;;;5059249;28;19970;-76
2022/08/04 11:39:06;;;;;;;;;;;26.10;99.90;;;;;;5053305;28;20238;-76
2022/08/04 11:41:39;;;;;;;;;;;26.50;99.90;;;;;;5061256;28;20433;-76
2022/08/04 11:44:06;;;;;;;;;;;27.20;99.90;;;;;;5053162;28;19933;-75
2022/08/04 11:46:37;;;;;;;;;;;27.40;99.90;;;;;;5063235;28;19924;-76
2022/08/04 11:49:07;;;;;;;;;;;27.20;99.40;;;;;;5064859;28;19924;-76
2022/08/04 11:51:36;;;;;;;;;;;27.10;99.60;;;;;;5056805;28;20395;-76
2022/08/04 11:54:03;;;;;;;;;;;27.30;98.10;;;;;;5053860;28;19932;-76
2022/08/04 11:56:30;;;;;;;;;;;27.40;97.50;;;;;;5057437;28;19979;-78
2022/08/04 11:58:58;;;;;;;;;;;27.30;97.00;;;;;;5061812;28;20012;-77
2022/08/04 12:01:28;;;;;;;;;;;27.60;97.40;;;;;;5056545;28;20328;-77
2022/08/04 12:04:02;;;;;;;;;;;27.50;95.90;;;;;;5059702;28;19935;-78
2022/08/04 12:06:30;;;;;;;;;;;27.30;96.10;;;;;;5063363;28;19982;-78
2022/08/04 12:09:07;;;;;;;;;;;27.20;96.60;;;;;;5063655;28;19925;-77
2022/08/04 12:11:48;;;;;;;;;;;27.40;96.60;;;;;;5059599;28;19932;-78
2022/08/04 12:14:21;;;;;;;;;;;27.20;96.40;;;;;;5059000;28;19960;-79
2022/08/04 12:16:52;;;;;;;;;;;27.50;96.30;;;;;;5057876;28;19967;-78
2022/08/04 12:19:21;;;;;;;;;;;27.60;96.10;;;;;;5061124;28;20019;-81
2022/08/04 12:21:49;;;;;;;;;;;27.50;95.90;;;;;;5059644;28;20447;-75
2022/08/04 12:24:20;;;;;;;;;;;27.80;95.90;;;;;;5062347;28;19986;-73
2022/08/04 12:26:50;;;;;;;;;;;28.00;94.50;;;;;;5054755;28;20382;-73
2022/08/04 12:29:18;;;;;;;;;;;27.60;94.70;;;;;;5059087;28;19924;-73
2022/08/04 12:31:46;;;;;;;;;;;27.50;95.10;;;;;;5060356;28;20402;-73
2022/08/04 12:34:15;;;;;;;;;;;27.50;95.60;;;;;;5063874;28;19931;-75
2022/08/04 12:36:46;;;;;;;;;;;27.70;95.20;;;;;;5058431;28;20015;-74
2022/08/04 12:39:16;;;;;;;;;;;27.70;94.70;;;;;;5063365;28;20019;-74
2022/08/04 12:41:48;;;;;;;;;;;27.60;95.20;;;;;;5060855;28;20027;-73
2022/08/04 12:44:15;;;;;;;;;;;27.50;95.00;;;;;;5064916;28;19924;-74
2022/08/04 12:46:45;;;;;;;;;;;27.50;95.00;;;;;;5065747;28;19931;-73
2022/08/04 12:49:12;;;;;;;;;;;27.70;94.40;;;;;;5065266;28;20047;-73
2022/08/04 12:51:40;;;;;;;;;;;28.00;94.00;;;;;;5058852;28;19924;-73
2022/08/04 12:54:08;;;;;;;;;;;27.70;93.80;;;;;;5063328;28;20409;-76
2022/08/04 12:56:36;;;;;;;;;;;27.90;94.00;;;;;;5061286;28;20050;-74
2022/08/04 12:59:06;;;;;;;;;;;28.20;93.40;;;;;;5058809;28;20149;-75
2022/08/04 13:01:33;;;;;;;;;;;28.40;93.00;;;;;;5059250;28;19925;-74
2022/08/04 13:04:02;;;;;;;;;;;28.40;91.80;;;;;;5063430;28;20015;-74
2022/08/04 13:06:31;;;;;;;;;;;28.00;92.20;;;;;;5061258;28;20044;-74
2022/08/04 13:09:03;;;;;;;;;;;28.10;93.40;;;;;;5063895;28;20437;-74
2022/08/04 13:11:34;;;;;;;;;;;28.30;93.10;;;;;;5057405;28;20350;-74
2022/08/04 13:14:01;;;;;;;;;;;28.50;92.70;;;;;;5054741;28;19933;-74
2022/08/04 13:16:30;;;;;;;;;;;28.80;91.80;;;;;;5052216;28;20019;-73
2022/08/04 13:18:58;;;;;;;;;;;28.70;91.60;;;;;;5055360;28;20001;-75
2022/08/04 13:21:25;;;;;;;;;;;29.00;91.60;;;;;;5054143;28;19947;-75
2022/08/04 13:23:54;;;;;;;;;;;28.40;91.30;;;;;;5057548;28;19933;-76
2022/08/04 13:26:21;;;;;;;;;;;28.30;91.40;;;;;;5054199;28;19924;-74
2022/08/04 13:28:50;;;;;;;;;;;28.30;91.40;;;;;;5060322;28;19928;-76
2022/08/04 13:31:19;;;;;;;;;;;28.10;92.20;;;;;;5054183;28;19935;-74
2022/08/04 13:33:49;;;;;;;;;;;28.20;91.80;;;;;;5051411;28;20030;-75
2022/08/04 13:36:17;;;;;;;;;;;28.50;91.70;;;;;;5056706;28;20015;-74
2022/08/04 13:39:13;;;;;;;;;;;28.40;91.50;;;;;;5054104;28;19956;-76
2022/08/04 13:41:43;;;;;;;;;;;28.60;91.60;;;;;;5051059;28;19933;-77
2022/08/04 13:44:11;;;;;;;;;;;28.70;91.20;;;;;;5050440;28;19932;-77
2022/08/04 13:46:39;;;;;;;;;;;28.90;88.50;;;;;;5056988;28;19963;-75
2022/08/04 13:49:09;;;;;;;;;;;28.90;88.00;;;;;;5062544;28;20442;-76
2022/08/04 13:51:37;;;;;;;;;;;29.20;86.60;;;;;;5057178;28;20019;-78
2022/08/04 13:54:04;;;;;;;;;;;29.50;83.70;;;;;;5062578;28;19924;-78
2022/08/04 13:56:34;;;;;;;;;;;29.70;82.70;;;;;;5057885;28;19932;-78
2022/08/04 13:59:00;;;;;;;;;;;29.60;82.40;;;;;;5059896;28;19932;-78
2022/08/04 14:01:28;;;;;;;;;;;29.70;79.80;;;;;;5057311;28;19931;-79
2022/08/04 14:03:58;;;;;;;;;;;29.90;78.80;;;;;;5061769;28;19924;-76
2022/08/04 14:06:28;;;;;;;;;;;30.60;76.70;;;;;;5056371;28;20027;-76
2022/08/04 14:08:57;;;;;;;;;;;30.70;74.30;;;;;;5053273;28;19990;-77
2022/08/04 14:11:31;;;;;;;;;;;30.90;71.90;;;;;;5055773;28;20387;-77
2022/08/04 14:13:58;;;;;;;;;;;30.60;72.20;;;;;;5057290;28;19936;-77
2022/08/04 14:16:25;;;;;;;;;;;30.40;72.70;;;;;;5058258;28;20379;-75
2022/08/04 14:18:58;;;;;;;;;;;30.20;73.70;;;;;;5061018;28;20100;-76
2022/08/04 14:21:25;;;;;;;;;;;30.00;73.00;;;;;;5057776;28;19959;-76
2022/08/04 14:23:53;;;;;;;;;;;29.80;73.30;;;;;;5061502;28;19924;-77
2022/08/04 14:26:25;;;;;;;;;;;29.40;74.70;;;;;;5055250;28;20590;-77
2022/08/04 14:28:53;;;;;;;;;;;29.40;75.60;;;;;;5054486;28;19924;-77
2022/08/04 14:31:20;;;;;;;;;;;30.00;73.70;;;;;;5058252;28;19929;-77
2022/08/04 14:33:47;;;;;;;;;;;30.40;71.50;;;;;;5057017;28;20235;-77
2022/08/04 14:36:15;;;;;;;;;;;30.20;70.40;;;;;;5060778;28;19932;-76
2022/08/04 14:38:43;;;;;;;;;;;30.00;70.00;;;;;;5063128;28;19931;-75